Terminal Aerodrome Forecast
Issued by NWS King Salmon, AK

Home | Current Version | Previous Version | Text Only | Print | Product List | Glossary On
Versions: 1 2 3 4 5 6 7 8 9 10 11 12 13 14 15 16 17 18 19 20
000
FTAK31 PANC 282333
TAFAKN
TAF
PAKN 282333Z 2900/2924 25007KT P6SM FEW050
     FM290300 25011KT P6SM FEW060
     FM291300 20005KT 1/2SM FG VV002
     FM291800 23007KT P6SM FEW010 SCT200=

USA.gov is the U.S. government's official web portal to all federal, state and local government web resources and services.